Terminal Aerodrome Forecast
Issued by NWS

Current Version | Previous Version | Text Only | Print | Product List | Glossary On
Versions: 1 2 3 4 5 6 7 8 9 10 11 12 13 14 15
000
FTUS43 KDTX 011300 AAB
TAFDET
TAF AMD
KDET 011343Z 0114/0212 11004KT P6SM OVC035
     FM011500 12005KT P6SM BKN030
     FM020100 12005KT P6SM SCT035
     FM020600 16004KT 1SM BR OVC005=

USA.gov is the U.S. government's official web portal to all federal, state and local government web resources and services.